Time;durP1;ratioP1;P1;durP2;ratioP2;P2;SDS_P1;SDS_P2;PMS_P1;PMS_P2;Temp;Humidity;BMP_temperature;BMP_pressure;BME280_temperature;BME280_humidity;BME280_pressure;Samples;Min_cycle;Max_cycle;Signal;HPM_P1;HPM_P2
2022/09/17 00:02:07;;;;;;;;;;;;;;;14.62;100.00;97302.31;5081639;28;20620;-79
2022/09/17 00:04:33;;;;;;;;;;;;;;;14.71;100.00;97311.25;5068436;28;20015;-80
2022/09/17 00:07:00;;;;;;;;;;;;;;;14.66;100.00;97305.19;5076644;28;19928;-79
2022/09/17 00:09:26;;;;;;;;;;;;;;;14.68;100.00;97298.41;5079707;28;19927;-79
2022/09/17 00:11:54;;;;;;;;;;;;;;;14.71;100.00;97297.00;5051460;28;19931;-81
2022/09/17 00:14:20;;;;;;;;;;;;;;;14.69;100.00;97293.84;5076866;28;20375;-80
2022/09/17 00:16:48;;;;;;;;;;;;;;;14.69;100.00;97305.38;5070050;28;20003;-80
2022/09/17 00:19:15;;;;;;;;;;;;;;;14.70;100.00;97298.13;5067267;28;19935;-81
2022/09/17 00:21:41;;;;;;;;;;;;;;;14.67;100.00;97294.13;5078110;28;20450;-80
2022/09/17 00:24:09;;;;;;;;;;;;;;;14.69;100.00;97300.00;5081163;28;19964;-80
2022/09/17 00:26:36;;;;;;;;;;;;;;;14.68;100.00;97301.09;5087375;28;19924;-80
2022/09/17 00:29:04;;;;;;;;;;;;;;;14.64;100.00;97310.84;5071884;28;19935;-80
2022/09/17 00:31:31;;;;;;;;;;;;;;;14.65;100.00;97315.13;5063469;28;19924;-79
2022/09/17 00:33:58;;;;;;;;;;;;;;;14.59;100.00;97311.78;5077794;28;19959;-80
2022/09/17 00:36:24;;;;;;;;;;;;;;;14.58;100.00;97307.50;5079155;28;19928;-79
2022/09/17 00:38:51;;;;;;;;;;;;;;;14.68;100.00;97317.22;5055687;28;19935;-80
2022/09/17 00:41:17;;;;;;;;;;;;;;;14.60;100.00;97312.56;5076502;28;19935;-79
2022/09/17 00:43:45;;;;;;;;;;;;;;;14.53;100.00;97309.50;5074481;28;19924;-79
2022/09/17 00:46:18;;;;;;;;;;;;;;;14.39;100.00;97314.13;5070177;28;19924;-80
2022/09/17 00:48:45;;;;;;;;;;;;;;;14.46;100.00;97309.13;5074333;28;19924;-79
2022/09/17 00:51:14;;;;;;;;;;;;;;;14.33;100.00;97299.19;5061090;28;19939;-81
2022/09/17 00:53:40;;;;;;;;;;;;;;;14.28;100.00;97310.03;5076366;28;20038;-80
2022/09/17 00:56:09;;;;;;;;;;;;;;;14.29;100.00;97315.09;5068998;28;19928;-80
2022/09/17 00:58:36;;;;;;;;;;;;;;;14.21;100.00;97301.56;5072420;28;19924;-80
2022/09/17 01:01:03;;;;;;;;;;;;;;;14.24;100.00;97317.88;5065261;28;20412;-80
2022/09/17 01:03:32;;;;;;;;;;;;;;;14.09;100.00;97315.50;5069239;28;19938;-79
2022/09/17 01:06:05;;;;;;;;;;;;;;;13.94;100.00;97323.88;5057417;28;19932;-80
2022/09/17 01:08:34;;;;;;;;;;;;;;;14.01;100.00;97322.38;5078369;28;19929;-79
2022/09/17 01:11:10;;;;;;;;;;;;;;;14.04;100.00;97324.47;5081367;28;19935;-80
2022/09/17 01:13:43;;;;;;;;;;;;;;;14.11;100.00;97328.66;5074486;28;19947;-80
2022/09/17 01:16:12;;;;;;;;;;;;;;;14.11;100.00;97323.28;5075234;28;19928;-81
2022/09/17 01:18:45;;;;;;;;;;;;;;;14.01;100.00;97327.75;5073971;28;19928;-81
2022/09/17 01:21:29;;;;;;;;;;;;;;;13.94;100.00;97318.50;5076124;28;19931;-80
2022/09/17 01:24:18;;;;;;;;;;;;;;;14.03;100.00;97322.06;5084027;28;20390;-80
2022/09/17 01:26:56;;;;;;;;;;;;;;;14.04;100.00;97321.78;5077598;28;19924;-79
2022/09/17 01:29:34;;;;;;;;;;;;;;;14.03;100.00;97317.50;5057198;28;19935;-80
2022/09/17 01:32:07;;;;;;;;;;;;;;;13.86;100.00;97329.94;5072923;28;20145;-80
2022/09/17 01:34:38;;;;;;;;;;;;;;;13.93;100.00;97325.75;5076521;28;19936;-80
2022/09/17 01:37:09;;;;;;;;;;;;;;;13.87;100.00;97334.19;5064400;28;19928;-79
2022/09/17 01:39:43;;;;;;;;;;;;;;;13.84;100.00;97335.59;5062007;28;19931;-81
2022/09/17 01:42:14;;;;;;;;;;;;;;;13.89;100.00;97343.56;5079841;28;19927;-81
2022/09/17 01:44:45;;;;;;;;;;;;;;;13.92;100.00;97348.34;5096197;28;19939;-78
2022/09/17 01:47:15;;;;;;;;;;;;;;;13.90;100.00;97337.09;5061668;28;20423;-81
2022/09/17 01:49:43;;;;;;;;;;;;;;;14.03;100.00;97347.03;5072473;28;19977;-80
2022/09/17 01:52:11;;;;;;;;;;;;;;;14.11;100.00;97352.81;5078066;28;20567;-80
2022/09/17 01:54:40;;;;;;;;;;;;;;;14.14;100.00;97349.53;5067888;28;19924;-81
2022/09/17 01:57:09;;;;;;;;;;;;;;;14.06;100.00;97343.75;5061947;28;20587;-80
2022/09/17 01:59:36;;;;;;;;;;;;;;;13.91;100.00;97344.06;5066974;28;19939;-80
2022/09/17 02:02:07;;;;;;;;;;;;;;;13.84;100.00;97345.53;5069674;28;19931;-80
2022/09/17 02:04:36;;;;;;;;;;;;;;;13.82;100.00;97343.16;5059240;28;19935;-79
2022/09/17 02:07:05;;;;;;;;;;;;;;;13.88;100.00;97341.16;5065537;28;19935;-81
2022/09/17 02:09:36;;;;;;;;;;;;;;;13.89;100.00;97343.56;5074613;28;19924;-80
2022/09/17 02:12:06;;;;;;;;;;;;;;;13.90;100.00;97337.09;5068025;28;20015;-79
2022/09/17 02:14:36;;;;;;;;;;;;;;;13.92;100.00;97347.53;5082722;28;19974;-79
2022/09/17 02:17:05;;;;;;;;;;;;;;;14.00;100.00;97346.84;5060019;28;19928;-80
2022/09/17 02:19:35;;;;;;;;;;;;;;;13.99;100.00;97340.66;5068344;28;19924;-80
2022/09/17 02:22:06;;;;;;;;;;;;;;;13.94;100.00;97334.59;5081576;28;19925;-80
2022/09/17 02:24:35;;;;;;;;;;;;;;;13.83;100.00;97334.00;5071081;28;19951;-80
2022/09/17 02:27:03;;;;;;;;;;;;;;;13.82;100.00;97329.75;5082948;28;20050;-80
2022/09/17 02:29:32;;;;;;;;;;;;;;;13.83;100.00;97333.22;5053869;28;19939;-79
2022/09/17 02:31:59;;;;;;;;;;;;;;;13.85;100.00;97326.47;5070073;28;19931;-81
2022/09/17 02:34:27;;;;;;;;;;;;;;;13.86;100.00;97316.53;5080105;28;19934;-81
2022/09/17 02:36:53;;;;;;;;;;;;;;;13.85;100.00;97326.47;5057227;28;19925;-79
2022/09/17 02:39:21;;;;;;;;;;;;;;;13.90;100.00;97318.28;5040234;28;20348;-80
2022/09/17 02:41:51;;;;;;;;;;;;;;;13.88;100.00;97315.13;5078723;28;19935;-81
2022/09/17 02:44:21;;;;;;;;;;;;;;;13.86;100.00;97311.94;5069483;28;20414;-79
2022/09/17 02:46:59;;;;;;;;;;;;;;;13.55;100.00;97312.81;5064805;28;19932;-80
2022/09/17 02:49:36;;;;;;;;;;;;;;;13.35;100.00;97295.19;5066207;28;19924;-80
2022/09/17 02:52:07;;;;;;;;;;;;;;;13.45;100.00;97295.81;5050474;28;19935;-80
2022/09/17 02:54:40;;;;;;;;;;;;;;;13.60;100.00;97285.88;5058132;28;19970;-81
2022/09/17 02:57:11;;;;;;;;;;;;;;;13.46;100.00;97296.63;5075864;28;20027;-79
2022/09/17 02:59:41;;;;;;;;;;;;;;;13.42;100.00;97292.94;5049948;28;19924;-80
2022/09/17 03:02:11;;;;;;;;;;;;;;;13.34;100.00;97293.59;5070513;28;19958;-80
2022/09/17 03:04:38;;;;;;;;;;;;;;;13.51;100.00;97288.47;5075957;28;20529;-80
2022/09/17 03:07:07;;;;;;;;;;;;;;;13.58;100.00;97294.25;5066508;28;20412;-79
2022/09/17 03:09:35;;;;;;;;;;;;;;;13.48;100.00;97299.78;5067487;28;19963;-80
2022/09/17 03:12:02;;;;;;;;;;;;;;;13.49;100.00;97299.47;5067546;28;19929;-80
2022/09/17 03:14:28;;;;;;;;;;;;;;;13.60;100.00;97297.41;5055133;28;19928;-78
2022/09/17 03:16:55;;;;;;;;;;;;;;;13.54;100.00;97295.91;5078396;28;19928;-80
2022/09/17 03:19:21;;;;;;;;;;;;;;;13.63;100.00;97286.09;5076466;28;19928;-80
2022/09/17 03:21:47;;;;;;;;;;;;;;;13.62;100.00;97279.13;5045506;28;19924;-79
2022/09/17 03:24:14;;;;;;;;;;;;;;;13.70;100.00;97297.22;5064641;28;19958;-80
2022/09/17 03:26:41;;;;;;;;;;;;;;;13.63;100.00;97302.19;5089628;28;20505;-78
2022/09/17 03:29:08;;;;;;;;;;;;;;;13.67;100.00;97292.47;5086218;28;19930;-80
2022/09/17 03:31:34;;;;;;;;;;;;;;;13.65;100.00;97289.25;5081366;28;19985;-80
2022/09/17 03:34:00;;;;;;;;;;;;;;;13.73;100.00;97293.94;5066567;28;19930;-79
2022/09/17 03:36:27;;;;;;;;;;;;;;;13.80;100.00;97291.66;5077126;28;19928;-80
2022/09/17 03:38:54;;;;;;;;;;;;;;;13.74;100.00;97282.09;5069563;28;19932;-81
2022/09/17 03:41:20;;;;;;;;;;;;;;;13.79;100.00;97295.44;5075309;28;19940;-80
2022/09/17 03:43:47;;;;;;;;;;;;;;;13.61;100.00;97290.16;5066777;28;19939;-79
2022/09/17 03:46:14;;;;;;;;;;;;;;;13.62;100.00;97292.53;5070754;28;20355;-80
2022/09/17 03:48:40;;;;;;;;;;;;;;;13.64;100.00;97285.00;5072517;28;19936;-79
2022/09/17 03:51:06;;;;;;;;;;;;;;;13.78;100.00;97283.09;5065862;28;19925;-80
2022/09/17 03:53:33;;;;;;;;;;;;;;;13.80;100.00;97285.50;5079031;28;19924;-81
2022/09/17 03:55:59;;;;;;;;;;;;;;;13.72;100.00;97272.75;5059870;28;19928;-80
2022/09/17 03:58:26;;;;;;;;;;;;;;;13.71;100.00;97277.34;5076576;28;19925;-80
2022/09/17 04:00:56;;;;;;;;;;;;;;;13.54;100.00;97282.50;5075761;28;19924;-80
2022/09/17 04:03:23;;;;;;;;;;;;;;;13.59;100.00;97279.72;5078930;28;19924;-79
2022/09/17 04:05:49;;;;;;;;;;;;;;;13.57;100.00;97275.75;5085729;28;20413;-80
2022/09/17 04:08:16;;;;;;;;;;;;;;;13.20;100.00;97274.00;5062114;28;19924;-80
2022/09/17 04:10:43;;;;;;;;;;;;;;;13.02;100.00;97272.16;5057320;28;19935;-79
2022/09/17 04:13:09;;;;;;;;;;;;;;;13.17;100.00;97269.22;5056259;28;19935;-80
2022/09/17 04:15:36;;;;;;;;;;;;;;;13.31;100.00;97275.41;5080153;28;19924;-80
2022/09/17 04:18:03;;;;;;;;;;;;;;;13.42;100.00;97269.59;5084984;28;19928;-78
2022/09/17 04:20:30;;;;;;;;;;;;;;;13.32;100.00;97266.28;5079126;28;20170;-81
2022/09/17 04:22:56;;;;;;;;;;;;;;;13.10;100.00;97268.81;5079950;28;19938;-81
2022/09/17 04:25:22;;;;;;;;;;;;;;;13.06;100.00;97262.44;5071056;28;19928;-80
2022/09/17 04:27:49;;;;;;;;;;;;;;;13.23;100.00;97266.19;5081276;28;19932;-80
2022/09/17 04:30:15;;;;;;;;;;;;;;;13.20;100.00;97276.69;5083256;28;19931;-79
2022/09/17 04:32:43;;;;;;;;;;;;;;;13.26;100.00;97268.25;5072271;28;19985;-80
2022/09/17 04:35:10;;;;;;;;;;;;;;;13.42;100.00;97274.16;5074106;28;19935;-80
2022/09/17 04:37:37;;;;;;;;;;;;;;;13.17;100.00;97270.03;5067652;28;19924;-80
2022/09/17 04:40:04;;;;;;;;;;;;;;;13.15;100.00;97264.16;5084976;28;20416;-79
2022/09/17 04:42:30;;;;;;;;;;;;;;;13.11;100.00;97267.72;5077270;28;19939;-80
2022/09/17 04:44:57;;;;;;;;;;;;;;;13.16;100.00;97268.44;5071150;28;20424;-80
2022/09/17 04:47:23;;;;;;;;;;;;;;;12.98;100.00;97269.25;5076024;28;19928;-80
2022/09/17 04:49:49;;;;;;;;;;;;;;;12.84;100.00;97271.88;5065791;28;19931;-79
2022/09/17 04:52:17;;;;;;;;;;;;;;;12.69;100.00;97266.00;5073985;28;19928;-80
2022/09/17 04:54:44;;;;;;;;;;;;;;;12.98;100.00;97275.41;5070641;28;19963;-80
2022/09/17 04:57:10;;;;;;;;;;;;;;;13.20;100.00;97268.66;5078185;28;19975;-80
2022/09/17 04:59:36;;;;;;;;;;;;;;;13.35;100.00;97266.50;5059767;28;20591;-78
2022/09/17 05:02:03;;;;;;;;;;;;;;;13.27;100.00;97277.91;5084102;28;19931;-79
2022/09/17 05:04:29;;;;;;;;;;;;;;;13.29;100.00;97286.44;5092922;28;19924;-80
2022/09/17 05:06:55;;;;;;;;;;;;;;;13.34;100.00;97283.66;5083001;28;19924;-80
2022/09/17 05:09:23;;;;;;;;;;;;;;;13.46;100.00;97289.34;5066032;28;20518;-79
2022/09/17 05:11:49;;;;;;;;;;;;;;;13.52;100.00;97279.34;5067793;28;19962;-79
2022/09/17 05:14:16;;;;;;;;;;;;;;;13.21;100.00;97280.97;5075105;28;19939;-79
2022/09/17 05:16:42;;;;;;;;;;;;;;;13.05;100.00;97279.59;5067821;28;19951;-81
2022/09/17 05:19:08;;;;;;;;;;;;;;;13.17;100.00;97279.97;5062980;28;19928;-79
2022/09/17 05:21:35;;;;;;;;;;;;;;;13.22;100.00;97285.22;5075597;28;19931;-79
2022/09/17 05:24:01;;;;;;;;;;;;;;;13.41;100.00;97296.69;5071518;28;19933;-78
2022/09/17 05:26:29;;;;;;;;;;;;;;;13.49;100.00;97296.03;5075831;28;19923;-80
2022/09/17 05:28:55;;;;;;;;;;;;;;;13.55;100.00;97305.56;5078477;28;19924;-80
2022/09/17 05:31:22;;;;;;;;;;;;;;;13.36;100.00;97310.19;5077582;28;19929;-80
2022/09/17 05:33:48;;;;;;;;;;;;;;;13.17;100.00;97312.13;5087335;28;19950;-79
2022/09/17 05:36:14;;;;;;;;;;;;;;;13.23;100.00;97319.78;5073735;28;19935;-79
2022/09/17 05:38:40;;;;;;;;;;;;;;;13.43;100.00;97329.41;5084600;28;19939;-80
2022/09/17 05:41:07;;;;;;;;;;;;;;;13.51;100.00;97336.75;5072448;28;20397;-79
2022/09/17 05:43:35;;;;;;;;;;;;;;;13.47;100.00;97336.53;5092348;28;19924;-79
2022/09/17 05:46:02;;;;;;;;;;;;;;;13.50;100.00;97344.00;5050012;28;19928;-81
2022/09/17 05:48:28;;;;;;;;;;;;;;;13.54;100.00;97352.25;5076063;28;19978;-80
2022/09/17 05:50:55;;;;;;;;;;;;;;;13.60;100.00;97363.69;5074682;28;20371;-79
2022/09/17 05:53:21;;;;;;;;;;;;;;;13.62;100.00;97373.03;5070247;28;19928;-80
2022/09/17 05:55:47;;;;;;;;;;;;;;;13.62;100.00;97381.06;5064257;28;19923;-79
2022/09/17 05:58:15;;;;;;;;;;;;;;;13.59;100.00;97389.72;5077562;28;20487;-80
2022/09/17 06:00:43;;;;;;;;;;;;;;;13.43;100.00;97396.44;5082388;28;19936;-79
2022/09/17 06:03:10;;;;;;;;;;;;;;;13.53;100.00;97396.25;5070569;28;19966;-80
2022/09/17 06:05:36;;;;;;;;;;;;;;;13.69;100.00;97402.97;5061066;28;20563;-80
2022/09/17 06:08:03;;;;;;;;;;;;;;;13.74;100.00;97410.91;5079721;28;19932;-80
2022/09/17 06:10:29;;;;;;;;;;;;;;;13.68;100.00;97412.09;5055852;28;20019;-80
2022/09/17 06:12:56;;;;;;;;;;;;;;;13.70;100.00;97420.66;5080486;28;19927;-79
2022/09/17 06:15:22;;;;;;;;;;;;;;;13.77;100.00;97425.66;5083262;28;19927;-80
2022/09/17 06:17:50;;;;;;;;;;;;;;;13.78;100.00;97432.59;5079152;28;19936;-80
2022/09/17 06:20:16;;;;;;;;;;;;;;;13.78;100.00;97425.34;5065265;28;19928;-81
2022/09/17 06:22:43;;;;;;;;;;;;;;;13.70;100.00;97428.72;5076418;28;19928;-84
2022/09/17 06:25:09;;;;;;;;;;;;;;;13.61;100.00;97416.25;5077743;28;19923;-81
2022/09/17 06:27:36;;;;;;;;;;;;;;;13.75;100.00;97422.44;5077108;28;19928;-79
2022/09/17 06:30:02;;;;;;;;;;;;;;;13.76;100.00;97418.69;5084512;28;19942;-79
2022/09/17 06:32:29;;;;;;;;;;;;;;;13.74;100.00;97412.81;5061156;28;20024;-80
2022/09/17 06:34:57;;;;;;;;;;;;;;;13.71;100.00;97416.88;5078254;28;19923;-79
2022/09/17 06:37:27;;;;;;;;;;;;;;;13.75;100.00;97407.16;5086054;28;19924;-80
2022/09/17 06:39:53;;;;;;;;;;;;;;;13.63;100.00;97414.88;5069902;28;19925;-80
2022/09/17 06:42:20;;;;;;;;;;;;;;;13.72;100.00;97406.94;5085578;28;19932;-80
2022/09/17 06:44:47;;;;;;;;;;;;;;;13.65;100.00;97401.94;5068397;28;19924;-81
2022/09/17 06:47:13;;;;;;;;;;;;;;;13.66;100.00;97392.81;5083415;28;19924;-82
2022/09/17 06:49:40;;;;;;;;;;;;;;;13.73;100.00;97397.81;5058966;28;19932;-79
2022/09/17 06:52:07;;;;;;;;;;;;;;;13.76;100.00;97408.75;5081612;28;19928;-81
2022/09/17 06:54:33;;;;;;;;;;;;;;;13.74;100.00;97410.13;5062263;28;20346;-80
2022/09/17 06:57:00;;;;;;;;;;;;;;;13.66;100.00;97403.56;5082978;28;19935;-80
2022/09/17 06:59:27;;;;;;;;;;;;;;;13.66;100.00;97400.88;5040706;28;20427;-82
2022/09/17 07:01:53;;;;;;;;;;;;;;;13.69;100.00;97397.59;5067393;28;19934;-79
2022/09/17 07:04:19;;;;;;;;;;;;;;;13.79;100.00;97397.44;5077360;28;19934;-81
2022/09/17 07:06:46;;;;;;;;;;;;;;;13.74;100.00;97392.13;5064702;28;19924;-79
2022/09/17 07:09:13;;;;;;;;;;;;;;;13.77;100.00;97396.13;5064719;28;19928;-80
2022/09/17 07:11:40;;;;;;;;;;;;;;;13.74;100.00;97394.81;5064969;28;20306;-79
2022/09/17 07:14:06;;;;;;;;;;;;;;;13.60;100.00;97395.88;5070025;28;19930;-79
2022/09/17 07:16:34;;;;;;;;;;;;;;;13.59;100.00;97395.06;5072771;28;20726;-80
2022/09/17 07:19:01;;;;;;;;;;;;;;;13.60;100.00;97404.72;5059448;28;20420;-80
2022/09/17 07:21:27;;;;;;;;;;;;;;;13.58;100.00;97395.38;5057848;28;19928;-79
2022/09/17 07:23:54;;;;;;;;;;;;;;;13.65;100.00;97396.59;5060781;28;19939;-81
2022/09/17 07:26:21;;;;;;;;;;;;;;;13.57;100.00;97389.22;5069092;28;20018;-78
2022/09/17 07:28:48;;;;;;;;;;;;;;;13.58;100.00;97401.56;5043768;28;20011;-79
2022/09/17 07:31:14;;;;;;;;;;;;;;;13.63;100.00;97395.28;5063010;28;19924;-80
2022/09/17 07:33:41;;;;;;;;;;;;;;;13.56;100.00;97401.03;5073893;28;19928;-80
2022/09/17 07:36:09;;;;;;;;;;;;;;;13.57;100.00;97399.94;5080018;28;19928;-80
2022/09/17 07:38:36;;;;;;;;;;;;;;;13.62;100.00;97396.38;5075106;28;19927;-80
2022/09/17 07:41:03;;;;;;;;;;;;;;;13.41;100.00;97391.38;5083072;28;19932;-81
2022/09/17 07:43:32;;;;;;;;;;;;;;;13.58;100.00;97404.25;5059691;28;20347;-80
2022/09/17 07:45:59;;;;;;;;;;;;;;;13.54;100.00;97416.63;5070674;28;19925;-80
2022/09/17 07:48:26;;;;;;;;;;;;;;;13.47;100.00;97402.78;5080326;28;19930;-79
2022/09/17 07:50:52;;;;;;;;;;;;;;;13.51;100.00;97406.50;5077476;28;19931;-79
2022/09/17 07:53:19;;;;;;;;;;;;;;;13.19;100.00;97395.75;5053961;28;19968;-80
2022/09/17 07:55:51;;;;;;;;;;;;;;;13.23;100.00;97404.81;5077281;28;19932;-78
2022/09/17 07:58:17;;;;;;;;;;;;;;;13.20;100.00;97400.81;5067539;28;20373;-79
2022/09/17 08:00:45;;;;;;;;;;;;;;;12.76;100.00;97405.72;5074048;28;19934;-79
2022/09/17 08:03:11;;;;;;;;;;;;;;;12.95;100.00;97409.22;5081775;28;19924;-80
2022/09/17 08:05:37;;;;;;;;;;;;;;;13.10;100.00;97410.88;5081629;28;19924;-79
2022/09/17 08:08:04;;;;;;;;;;;;;;;13.19;100.00;97422.56;5082293;28;19981;-80
2022/09/17 08:10:30;;;;;;;;;;;;;;;13.24;100.00;97422.50;5055930;28;19924;-79
2022/09/17 08:12:58;;;;;;;;;;;;;;;13.41;100.00;97420.06;5078691;28;20393;-81
2022/09/17 08:15:25;;;;;;;;;;;;;;;13.52;100.00;97418.81;5054324;28;19963;-80
2022/09/17 08:17:53;;;;;;;;;;;;;;;13.46;100.00;97418.09;5074909;28;19934;-79
2022/09/17 08:20:19;;;;;;;;;;;;;;;13.12;100.00;97424.81;5069204;28;19935;-80
2022/09/17 08:22:45;;;;;;;;;;;;;;;13.05;100.00;97421.66;5077111;28;19925;-81
2022/09/17 08:25:12;;;;;;;;;;;;;;;13.15;100.00;97419.66;5067505;28;19931;-80
2022/09/17 08:27:38;;;;;;;;;;;;;;;13.17;100.00;97422.06;5080131;28;19932;-79
2022/09/17 08:30:05;;;;;;;;;;;;;;;12.99;100.00;97413.72;5082171;28;19928;-80
2022/09/17 08:32:32;;;;;;;;;;;;;;;13.10;100.00;97416.25;5073176;28;20618;-80
2022/09/17 08:34:59;;;;;;;;;;;;;;;13.15;100.00;97425.00;5083311;28;19990;-79
2022/09/17 08:37:26;;;;;;;;;;;;;;;13.15;100.00;97416.19;5089286;28;19924;-81
2022/09/17 08:39:52;;;;;;;;;;;;;;;13.14;100.00;97425.31;5072446;28;20536;-78
2022/09/17 08:42:22;;;;;;;;;;;;;;;13.17;100.00;97409.44;5069836;28;19928;-79
2022/09/17 08:44:49;;;;;;;;;;;;;;;13.41;100.00;97422.75;5071716;28;19931;-80
2022/09/17 08:47:17;;;;;;;;;;;;;;;13.38;100.00;97408.03;5078315;28;19924;-80
2022/09/17 08:49:48;;;;;;;;;;;;;;;13.38;100.00;97421.44;5080215;28;20415;-79
2022/09/17 08:52:23;;;;;;;;;;;;;;;13.28;100.00;97412.75;5077099;28;19931;-80
2022/09/17 08:54:54;;;;;;;;;;;;;;;13.32;100.00;97419.94;5078088;28;19928;-79
2022/09/17 08:57:25;;;;;;;;;;;;;;;13.34;100.00;97423.13;5085113;28;19935;-79
2022/09/17 08:59:57;;;;;;;;;;;;;;;13.27;100.00;97422.72;5077820;28;19924;-79
2022/09/17 09:02:28;;;;;;;;;;;;;;;12.94;100.00;97429.84;5084551;28;19931;-79
2022/09/17 09:05:02;;;;;;;;;;;;;;;12.97;100.00;97437.31;5087601;28;20407;-80
2022/09/17 09:07:32;;;;;;;;;;;;;;;13.14;100.00;97433.34;5081875;28;19928;-80
2022/09/17 09:10:04;;;;;;;;;;;;;;;13.17;100.00;97438.13;5069843;28;19928;-80
2022/09/17 09:12:32;;;;;;;;;;;;;;;13.22;100.00;97424.66;5076626;28;19928;-80
2022/09/17 09:15:00;;;;;;;;;;;;;;;13.06;100.00;97431.31;5087300;28;19924;-79
2022/09/17 09:17:31;;;;;;;;;;;;;;;13.05;100.00;97429.72;5079607;28;20036;-79
2022/09/17 09:19:58;;;;;;;;;;;;;;;13.24;100.00;97433.22;5082183;28;20000;-79
2022/09/17 09:22:32;;;;;;;;;;;;;;;13.29;100.00;97441.16;5081881;28;19930;-80
2022/09/17 09:25:03;;;;;;;;;;;;;;;13.31;100.00;97447.84;5084068;28;20553;-79
2022/09/17 09:27:33;;;;;;;;;;;;;;;13.21;100.00;97447.22;5085553;28;19925;-80
2022/09/17 09:30:03;;;;;;;;;;;;;;;13.38;100.00;97442.91;5082553;28;20410;-81
2022/09/17 09:32:40;;;;;;;;;;;;;;;13.48;100.00;97447.31;5077412;28;19936;-78
2022/09/17 09:35:15;;;;;;;;;;;;;;;13.59;100.00;97439.88;5078074;28;20425;-81
2022/09/17 09:37:44;;;;;;;;;;;;;;;13.51;100.00;97450.22;5070571;28;19932;-81
2022/09/17 09:40:21;;;;;;;;;;;;;;;13.37;100.00;97443.19;5080216;28;19935;-81
2022/09/17 09:42:48;;;;;;;;;;;;;;;13.01;100.00;97442.88;5074801;28;19924;-81
2022/09/17 09:45:16;;;;;;;;;;;;;;;13.08;100.00;97462.13;5084010;28;20013;-82
2022/09/17 09:47:52;;;;;;;;;;;;;;;12.89;100.00;97458.59;5065547;28;19935;-81
2022/09/17 09:50:22;;;;;;;;;;;;;;;15.02;100.00;97457.31;5084214;28;19958;-81
2022/09/17 09:52:53;;;;;;;;;;;;;;;16.59;100.00;97448.06;5071625;28;19925;-82
2022/09/17 09:55:31;;;;;;;;;;;;;;;17.08;100.00;97442.28;5090171;28;19928;-80
2022/09/17 09:58:03;;;;;;;;;;;;;;;17.37;100.00;97443.59;5079088;28;19924;-80
2022/09/17 10:00:30;;;;;;;;;;;;;;;17.65;100.00;97450.28;5083049;28;19924;-81
2022/09/17 10:03:01;;;;;;;;;;;;;;;16.04;100.00;97448.44;5089445;28;19931;-82
2022/09/17 10:05:28;;;;;;;;;;;;;;;16.93;100.00;97450.84;5069652;28;19977;-82
2022/09/17 10:07:54;;;;;;;;;;;;;;;16.99;100.00;97448.81;5073621;28;19935;-80
2022/09/17 10:10:22;;;;;;;;;;;;;;;15.05;100.00;97467.47;5082562;28;19928;-80
2022/09/17 10:12:49;;;;;;;;;;;;;;;14.61;100.00;97461.94;5096651;28;19963;-81
2022/09/17 10:15:23;;;;;;;;;;;;;;;14.41;100.00;97465.84;5080844;28;19932;-80
2022/09/17 10:17:49;;;;;;;;;;;;;;;14.10;100.00;97472.03;5069100;28;19924;-81
2022/09/17 10:20:16;;;;;;;;;;;;;;;13.88;100.00;97470.00;5073557;28;19928;-81
2022/09/17 10:22:44;;;;;;;;;;;;;;;13.68;100.00;97481.84;5083237;28;20482;-81
2022/09/17 10:25:22;;;;;;;;;;;;;;;13.47;100.00;97480.59;5050900;28;19936;-80
2022/09/17 10:27:50;;;;;;;;;;;;;;;13.44;100.00;97476.59;5063527;28;19927;-81
2022/09/17 10:30:18;;;;;;;;;;;;;;;13.34;100.00;97481.31;5082178;28;19925;-80
2022/09/17 10:33:04;;;;;;;;;;;;;;;13.28;100.00;97479.78;5073659;28;19967;-81
2022/09/17 10:35:30;;;;;;;;;;;;;;;13.50;100.00;97485.38;5080834;28;19924;-82
2022/09/17 10:37:57;;;;;;;;;;;;;;;13.58;100.00;97492.78;5077487;28;19929;-81
2022/09/17 10:40:30;;;;;;;;;;;;;;;13.54;100.00;97486.38;5060622;28;19928;-81
2022/09/17 10:43:19;;;;;;;;;;;;;;;13.65;100.00;97484.34;5074058;28;20009;-80
2022/09/17 10:45:54;;;;;;;;;;;;;;;13.59;100.00;97480.94;5071256;28;19931;-81
2022/09/17 10:48:21;;;;;;;;;;;;;;;13.61;100.00;97481.47;5060303;28;19932;-79
2022/09/17 10:50:48;;;;;;;;;;;;;;;13.76;100.00;97475.84;5069583;28;19925;-81
2022/09/17 10:53:16;;;;;;;;;;;;;;;13.93;100.00;97481.44;5073941;28;20483;-79
2022/09/17 10:55:45;;;;;;;;;;;;;;;13.86;100.00;97473.00;5069394;28;19935;-80
2022/09/17 10:58:17;;;;;;;;;;;;;;;13.95;100.00;97473.91;5058506;28;19931;-81
2022/09/17 11:00:51;;;;;;;;;;;;;;;13.98;100.00;97467.16;5075647;28;19924;-78
2022/09/17 11:03:35;;;;;;;;;;;;;;;13.98;100.00;97467.94;5065180;28;19924;-80
2022/09/17 11:06:10;;;;;;;;;;;;;;;14.03;100.00;97467.84;5078065;28;19924;-81
2022/09/17 11:08:42;;;;;;;;;;;;;;;14.03;100.00;97467.06;5078690;28;20427;-78
2022/09/17 11:11:10;;;;;;;;;;;;;;;14.16;100.00;97470.84;5065299;28;19940;-80
2022/09/17 11:13:41;;;;;;;;;;;;;;;14.14;100.00;97468.47;5056251;28;19932;-80
2022/09/17 11:16:15;;;;;;;;;;;;;;;14.15;100.00;97469.25;5087917;28;20449;-80
2022/09/17 11:18:43;;;;;;;;;;;;;;;13.86;100.00;97473.00;5074986;28;19950;-81
2022/09/17 11:21:30;;;;;;;;;;;;;;;14.05;100.00;97464.84;5072507;28;19933;-80
2022/09/17 11:24:07;;;;;;;;;;;;;;;14.16;100.00;97457.44;5064864;28;19933;-80
2022/09/17 11:26:36;;;;;;;;;;;;;;;14.06;100.00;97450.34;5061260;28;19924;-81
2022/09/17 11:29:09;;;;;;;;;;;;;;;14.04;100.00;97464.09;5075765;28;19928;-81
2022/09/17 11:31:44;;;;;;;;;;;;;;;14.14;100.00;97457.75;5083584;28;20382;-81
2022/09/17 11:34:23;;;;;;;;;;;;;;;14.14;100.00;97448.88;5073766;28;19971;-81
2022/09/17 11:36:54;;;;;;;;;;;;;;;14.20;100.00;97442.31;5078883;28;19924;-79
2022/09/17 11:39:23;;;;;;;;;;;;;;;14.23;100.00;97441.72;5094147;28;19993;-81
2022/09/17 11:41:51;;;;;;;;;;;;;;;14.29;100.00;97443.22;5082979;28;19927;-79
2022/09/17 11:44:22;;;;;;;;;;;;;;;14.34;100.00;97435.09;5071644;28;19924;-80
2022/09/17 11:46:53;;;;;;;;;;;;;;;14.15;100.00;97435.16;5074234;28;19936;-79
2022/09/17 11:49:29;;;;;;;;;;;;;;;13.95;100.00;97417.53;5065847;28;20558;-79
2022/09/17 11:51:57;;;;;;;;;;;;;;;14.15;100.00;97428.97;5079057;28;20671;-80
2022/09/17 11:54:26;;;;;;;;;;;;;;;14.20;100.00;97434.25;5065184;28;19935;-79
2022/09/17 11:56:54;;;;;;;;;;;;;;;14.27;100.00;97423.91;5074437;28;19975;-80
2022/09/17 11:59:25;;;;;;;;;;;;;;;14.31;100.00;97419.53;5082950;28;19928;-79
2022/09/17 12:01:56;;;;;;;;;;;;;;;14.22;100.00;97413.28;5073690;28;19924;-80
2022/09/17 12:04:34;;;;;;;;;;;;;;;14.31;100.00;97404.22;5084740;28;20331;-81
2022/09/17 12:07:03;;;;;;;;;;;;;;;14.34;100.00;97417.09;5090336;28;19928;-78
2022/09/17 12:09:32;;;;;;;;;;;;;;;14.32;100.00;97410.41;5066299;28;20006;-80
2022/09/17 12:12:00;;;;;;;;;;;;;;;14.41;100.00;97403.25;5082369;28;19935;-79
2022/09/17 12:14:30;;;;;;;;;;;;;;;14.48;100.00;97409.03;5095379;28;19990;-78
2022/09/17 12:16:59;;;;;;;;;;;;;;;14.50;100.00;97409.50;5096007;28;20658;-79
2022/09/17 12:19:30;;;;;;;;;;;;;;;14.63;100.00;97400.66;5089429;28;20411;-81
2022/09/17 12:21:59;;;;;;;;;;;;;;;14.71;100.00;97401.81;5069887;28;19934;-81
2022/09/17 12:24:27;;;;;;;;;;;;;;;14.76;100.00;97409.78;5085647;28;19939;-82
2022/09/17 12:27:01;;;;;;;;;;;;;;;14.80;100.00;97400.81;5068638;28;19924;-80
2022/09/17 12:29:37;;;;;;;;;;;;;;;14.65;100.00;97398.44;5059687;28;19932;-80
2022/09/17 12:32:13;;;;;;;;;;;;;;;14.56;100.00;97400.25;5081752;28;20379;-81
2022/09/17 12:34:45;;;;;;;;;;;;;;;14.69;100.00;97399.44;5074481;28;19924;-78
2022/09/17 12:37:17;;;;;;;;;;;;;;;14.68;100.00;97392.47;5079656;28;20307;-81
2022/09/17 12:39:55;;;;;;;;;;;;;;;14.52;100.00;97385.81;5082863;28;19934;-80
2022/09/17 12:42:31;;;;;;;;;;;;;;;14.68;100.00;97384.41;5075115;28;20418;-79
2022/09/17 12:45:12;;;;;;;;;;;;;;;14.69;100.00;97386.00;5059659;28;19931;-80